Time;durP1;ratioP1;P1;durP2;ratioP2;P2;SDS_P1;SDS_P2;PMS_P1;PMS_P2;Temp;Humidity;BMP_temperature;BMP_pressure;BME280_temperature;BME280_humidity;BME280_pressure;Samples;Min_cycle;Max_cycle;Signal;HPM_P1;HPM_P2
2023/03/20 00:03:11;;;;;;;;;;;;;;;10.97;82.98;101878.19;20520135;28;19926;-58
2023/03/20 00:13:32;;;;;;;;;;;;;;;11.00;84.39;101880.75;20513364;28;19930;-59
2023/03/20 00:23:54;;;;;;;;;;;;;;;10.90;81.04;101892.09;20533397;28;19965;-59
2023/03/20 00:34:18;;;;;;;;;;;;;;;10.79;83.07;101899.16;20523528;28;19984;-59
2023/03/20 00:44:44;;;;;;;;;;;;;;;10.62;83.55;101872.63;20521499;28;19926;-59
2023/03/20 00:55:05;;;;;;;;;;;;;;;10.49;83.63;101901.31;20524619;28;19926;-58
2023/03/20 01:05:27;;;;;;;;;;;;;;;10.41;83.50;101906.56;20540767;28;20287;-59
2023/03/20 01:15:50;;;;;;;;;;;;;;;10.31;82.58;101933.41;20547284;28;19926;-59
2023/03/20 01:26:21;;;;;;;;;;;;;;;10.31;82.67;101924.81;20522815;28;19949;-59
2023/03/20 01:36:47;;;;;;;;;;;;;;;10.33;83.06;101921.31;20524212;28;20390;-58
2023/03/20 01:47:15;;;;;;;;;;;;;;;10.23;82.47;101919.72;20518598;28;19923;-58
2023/03/20 01:57:37;;;;;;;;;;;;;;;10.21;82.69;101921.47;20524948;28;19963;-58
2023/03/20 02:08:04;;;;;;;;;;;;;;;10.13;82.15;101918.09;20518230;28;19977;-60
2023/03/20 02:18:26;;;;;;;;;;;;;;;10.15;81.80;101908.59;20516430;28;19977;-59
2023/03/20 02:29:03;;;;;;;;;;;;;;;10.09;82.22;101904.34;20526616;28;20307;-57
2023/03/20 02:39:43;;;;;;;;;;;;;;;10.02;82.26;101894.03;20505473;28;20401;-59
2023/03/20 02:50:13;;;;;;;;;;;;;;;10.00;81.79;101869.91;20525180;28;19925;-58
2023/03/20 03:00:41;;;;;;;;;;;;;;;10.00;81.82;101865.63;20533603;28;19926;-59
2023/03/20 03:11:07;;;;;;;;;;;;;;;9.99;83.06;101863.06;20523033;28;20374;-59
2023/03/20 03:21:29;;;;;;;;;;;;;;;9.95;82.32;101851.88;20520108;28;20017;-58
2023/03/20 03:31:51;;;;;;;;;;;;;;;9.98;82.35;101843.25;20517237;28;20017;-59
2023/03/20 03:42:21;;;;;;;;;;;;;;;9.90;83.02;101843.34;20527150;28;20398;-59
2023/03/20 03:52:43;;;;;;;;;;;;;;;9.90;82.69;101842.47;20521836;28;19922;-58
2023/03/20 04:03:06;;;;;;;;;;;;;;;9.85;84.64;101849.44;20517873;28;19922;-59
2023/03/20 04:13:27;;;;;;;;;;;;;;;9.87;83.60;101824.41;20511032;28;20490;-59
2023/03/20 04:23:49;;;;;;;;;;;;;;;9.86;83.24;101820.09;20529986;28;19926;-60
2023/03/20 04:34:10;;;;;;;;;;;;;;;9.81;83.28;101811.56;20546417;28;19926;-60
2023/03/20 04:44:31;;;;;;;;;;;;;;;9.82;83.73;101819.28;20531860;28;19922;-59
2023/03/20 04:54:53;;;;;;;;;;;;;;;9.80;83.86;101815.00;20529889;28;19922;-59
2023/03/20 05:05:14;;;;;;;;;;;;;;;9.71;84.42;101836.63;20527723;28;20322;-59
2023/03/20 05:15:36;;;;;;;;;;;;;;;9.78;82.74;101816.75;20544299;28;19929;-60
2023/03/20 05:25:58;;;;;;;;;;;;;;;9.72;82.55;101822.00;20531907;28;19923;-59
2023/03/20 05:36:19;;;;;;;;;;;;;;;9.69;82.08;101828.03;20530207;28;20299;-60
2023/03/20 05:46:41;;;;;;;;;;;;;;;9.67;81.72;101839.28;20522044;28;20294;-58
2023/03/20 05:57:03;;;;;;;;;;;;;;;9.71;81.17;101844.38;20540796;28;19969;-60
2023/03/20 06:07:24;;;;;;;;;;;;;;;9.71;81.22;101851.28;20525016;28;20036;-59
2023/03/20 06:17:47;;;;;;;;;;;;;;;9.73;81.12;101854.72;20521403;28;19936;-59
2023/03/20 06:28:08;;;;;;;;;;;;;;;9.75;81.00;101855.53;20523316;28;19933;-59
2023/03/20 06:38:30;;;;;;;;;;;;;;;9.77;80.36;101867.59;20518088;28;20356;-59
2023/03/20 06:48:51;;;;;;;;;;;;;;;9.75;80.42;101858.13;20525379;28;20436;-58
2023/03/20 06:59:12;;;;;;;;;;;;;;;9.81;80.31;101863.25;20525765;28;19961;-58
2023/03/20 07:09:34;;;;;;;;;;;;;;;9.86;79.71;101871.81;20504218;28;20079;-58
2023/03/20 07:19:55;;;;;;;;;;;;;;;9.90;79.34;101873.50;20516378;28;19922;-58
2023/03/20 07:30:17;;;;;;;;;;;;;;;9.97;78.23;101890.66;20520284;28;19973;-57
2023/03/20 07:40:38;;;;;;;;;;;;;;;9.91;77.58;101888.13;20504522;28;19981;-57
2023/03/20 07:51:00;;;;;;;;;;;;;;;9.98;76.52;101897.56;20511596;28;19930;-59
2023/03/20 08:01:21;;;;;;;;;;;;;;;10.06;76.29;101900.91;20534176;28;19926;-58
2023/03/20 08:11:43;;;;;;;;;;;;;;;10.16;75.66;101902.56;20518401;28;19981;-58
2023/03/20 08:22:05;;;;;;;;;;;;;;;10.21;75.54;101907.66;20513723;28;19926;-58
2023/03/20 08:32:26;;;;;;;;;;;;;;;10.30;74.61;101911.00;20512110;28;19941;-58
2023/03/20 08:42:47;;;;;;;;;;;;;;;10.43;74.12;101902.22;20527023;28;20432;-59
2023/03/20 08:53:09;;;;;;;;;;;;;;;10.60;73.51;101895.09;20526729;28;20036;-58
2023/03/20 09:03:31;;;;;;;;;;;;;;;10.69;72.18;101889.81;20539162;28;19930;-59
2023/03/20 09:13:52;;;;;;;;;;;;;;;10.65;72.45;101898.50;20532030;28;19926;-58
2023/03/20 09:24:13;;;;;;;;;;;;;;;10.67;71.25;101896.75;20525247;28;19934;-59
2023/03/20 09:34:35;;;;;;;;;;;;;;;10.76;71.86;101904.38;20531308;28;19922;-58
2023/03/20 09:45:04;;;;;;;;;;;;;;;10.94;71.35;101896.38;20530077;28;19930;-60
2023/03/20 09:55:30;;;;;;;;;;;;;;;11.04;71.55;101892.75;20520387;28;19965;-58
2023/03/20 10:06:00;;;;;;;;;;;;;;;11.27;70.98;101883.78;20527670;28;19926;-58
2023/03/20 10:16:24;;;;;;;;;;;;;;;11.54;69.20;101873.81;20516196;28;19930;-60
2023/03/20 10:26:49;;;;;;;;;;;;;;;11.57;67.64;101873.78;20526163;28;19932;-59
2023/03/20 10:37:24;;;;;;;;;;;;;;;11.64;68.33;101870.19;20525309;28;20367;-59
2023/03/20 10:47:48;;;;;;;;;;;;;;;11.97;66.28;101850.59;20534536;28;20530;-58
2023/03/20 10:58:10;;;;;;;;;;;;;;;12.10;64.87;101850.28;20533581;28;20025;-58
2023/03/20 11:08:36;;;;;;;;;;;;;;;12.21;66.75;101837.13;20518415;28;20643;-59
2023/03/20 11:19:04;;;;;;;;;;;;;;;12.27;65.94;101831.78;20516924;28;19934;-58
2023/03/20 11:29:29;;;;;;;;;;;;;;;12.23;66.74;101831.91;20531074;28;19922;-58
2023/03/20 11:40:09;;;;;;;;;;;;;;;12.26;67.36;101824.91;20521563;28;20333;-58
2023/03/20 11:50:35;;;;;;;;;;;;;;;12.29;66.11;101824.00;20522283;28;19976;-58
2023/03/20 12:00:57;;;;;;;;;;;;;;;12.19;65.77;101836.31;20524806;28;19982;-58
2023/03/20 12:11:18;;;;;;;;;;;;;;;12.27;64.64;101826.59;20519971;28;20349;-58
2023/03/20 12:22:09;;;;;;;;;;;;;;;12.28;65.06;101827.47;20518646;28;19926;-59
2023/03/20 12:32:30;;;;;;;;;;;;;;;12.39;66.25;101810.78;20484828;28;20397;-60
2023/03/20 12:43:01;;;;;;;;;;;;;;;12.45;65.36;101818.44;20532711;28;19992;-59
2023/03/20 12:53:29;;;;;;;;;;;;;;;12.39;65.15;101809.94;20529488;28;19926;-60
2023/03/20 13:03:51;;;;;;;;;;;;;;;12.37;65.75;101804.78;20532090;28;19926;-58
2023/03/20 13:14:32;;;;;;;;;;;;;;;12.25;65.89;101794.63;20529252;28;19970;-60
2023/03/20 13:25:00;;;;;;;;;;;;;;;12.20;66.60;101788.69;20534687;28;19926;-58
2023/03/20 13:35:45;;;;;;;;;;;;;;;12.05;66.17;101794.19;20519357;28;19922;-58
2023/03/20 13:46:19;;;;;;;;;;;;;;;12.02;66.60;101789.09;20536461;28;19984;-60
2023/03/20 13:56:58;;;;;;;;;;;;;;;11.91;67.18;101798.81;20528135;28;20354;-59
2023/03/20 14:07:32;;;;;;;;;;;;;;;11.59;69.97;101817.53;20526197;28;20013;-59
2023/03/20 14:17:54;;;;;;;;;;;;;;;11.28;71.70;101812.94;20523867;28;20178;-59
2023/03/20 14:28:18;;;;;;;;;;;;;;;11.14;73.51;101806.25;20519413;28;19949;-59
2023/03/20 14:38:39;;;;;;;;;;;;;;;11.08;74.28;101790.81;20520325;28;19926;-59
2023/03/20 14:49:03;;;;;;;;;;;;;;;11.04;75.10;101783.13;20516602;28;20024;-59
2023/03/20 14:59:25;;;;;;;;;;;;;;;11.01;75.08;101767.63;20528592;28;19977;-59
2023/03/20 15:09:47;;;;;;;;;;;;;;;11.04;73.30;101781.38;20520317;28;20374;-60
2023/03/20 15:20:14;;;;;;;;;;;;;;;11.10;72.86;101783.00;20519803;28;19922;-59
2023/03/20 15:30:37;;;;;;;;;;;;;;;10.96;73.93;101783.25;20529822;28;20020;-59
2023/03/20 15:40:59;;;;;;;;;;;;;;;10.94;74.02;101760.84;20518127;28;19933;-58
2023/03/20 15:51:24;;;;;;;;;;;;;;;10.99;72.53;101764.19;20508447;28;19950;-59
2023/03/20 16:01:48;;;;;;;;;;;;;;;10.88;73.08;101772.16;20513261;28;19970;-59
2023/03/20 16:12:14;;;;;;;;;;;;;;;10.83;73.09;101779.16;20534922;28;19930;-60
2023/03/20 16:22:35;;;;;;;;;;;;;;;10.78;73.67;101765.44;20534240;28;19930;-59
2023/03/20 16:32:58;;;;;;;;;;;;;;;10.56;75.14;101768.34;20534145;28;20294;-59
2023/03/20 16:43:27;;;;;;;;;;;;;;;10.26;78.78;101782.56;20549665;28;19934;-58
2023/03/20 16:53:50;;;;;;;;;;;;;;;10.02;81.13;101777.69;20525815;28;20417;-58
2023/03/20 17:04:19;;;;;;;;;;;;;;;9.91;81.88;101784.72;20538057;28;19969;-58
2023/03/20 17:14:43;;;;;;;;;;;;;;;9.70;83.57;101779.81;20542839;28;19926;-58
2023/03/20 17:25:05;;;;;;;;;;;;;;;9.65;85.18;101789.34;20527320;28;19937;-58
2023/03/20 17:35:26;;;;;;;;;;;;;;;9.52;85.29;101782.59;20527094;28;19978;-59
2023/03/20 17:45:48;;;;;;;;;;;;;;;9.45;86.67;101786.09;20524904;28;19981;-59
2023/03/20 17:56:11;;;;;;;;;;;;;;;9.39;86.12;101784.44;20510538;28;19926;-57
2023/03/20 18:06:33;;;;;;;;;;;;;;;9.32;86.74;101787.09;20535819;28;20024;-57
2023/03/20 18:16:54;;;;;;;;;;;;;;;9.31;85.85;101782.78;20528014;28;19930;-59
2023/03/20 18:27:15;;;;;;;;;;;;;;;9.28;86.04;101781.09;20527461;28;19922;-57
2023/03/20 18:37:37;;;;;;;;;;;;;;;9.31;84.72;101787.94;20529449;28;19922;-59
2023/03/20 18:48:02;;;;;;;;;;;;;;;9.31;88.01;101782.78;20521995;28;19922;-58
2023/03/20 18:58:24;;;;;;;;;;;;;;;9.29;85.97;101779.34;20521310;28;19977;-58
2023/03/20 19:08:47;;;;;;;;;;;;;;;9.24;86.63;101775.97;20520635;28;19939;-59
2023/03/20 19:19:13;;;;;;;;;;;;;;;9.14;87.31;101765.72;20515727;28;19927;-59
2023/03/20 19:29:34;;;;;;;;;;;;;;;9.13;88.98;101760.59;20521765;28;20389;-57
2023/03/20 19:39:56;;;;;;;;;;;;;;;9.13;88.91;101755.41;20523171;28;19953;-59
2023/03/20 19:50:20;;;;;;;;;;;;;;;9.13;88.66;101755.41;20516687;28;19981;-59
2023/03/20 20:00:42;;;;;;;;;;;;;;;9.18;89.37;101755.34;20508802;28;19969;-58
2023/03/20 20:11:20;;;;;;;;;;;;;;;9.20;88.64;101753.63;20531694;28;19922;-59
2023/03/20 20:21:42;;;;;;;;;;;;;;;9.22;88.52;101738.97;20531220;28;19926;-59
2023/03/20 20:32:25;;;;;;;;;;;;;;;9.19;90.49;101736.44;20519179;28;20065;-60
2023/03/20 20:42:50;;;;;;;;;;;;;;;9.22;89.85;101734.66;20520887;28;19923;-58
2023/03/20 20:53:11;;;;;;;;;;;;;;;9.18;91.73;101732.97;20539762;28;20390;-59
2023/03/20 21:03:33;;;;;;;;;;;;;;;9.19;92.22;101732.13;20525180;28;19926;-59
2023/03/20 21:13:54;;;;;;;;;;;;;;;9.25;93.33;101731.22;20547629;28;19931;-60
2023/03/20 21:24:15;;;;;;;;;;;;;;;9.26;92.23;101731.19;20534468;28;20381;-60
2023/03/20 21:34:53;;;;;;;;;;;;;;;9.30;92.80;101725.13;20526295;28;20080;-59
2023/03/20 21:45:14;;;;;;;;;;;;;;;9.28;93.46;101723.44;20516378;28;19961;-59
2023/03/20 21:55:56;;;;;;;;;;;;;;;9.34;95.12;101715.63;20509743;28;20452;-60
2023/03/20 22:06:37;;;;;;;;;;;;;;;9.43;94.34;101726.69;20536404;28;19929;-59
2023/03/20 22:17:21;;;;;;;;;;;;;;;9.42;94.88;101722.41;20530851;28;19926;-59
2023/03/20 22:28:03;;;;;;;;;;;;;;;9.44;95.31;101732.72;20527758;28;20020;-58
2023/03/20 22:38:44;;;;;;;;;;;;;;;9.52;93.79;101730.91;20520631;28;20025;-59
2023/03/20 22:49:26;;;;;;;;;;;;;;;9.52;94.33;101720.59;20522235;28;20361;-57
2023/03/20 22:59:47;;;;;;;;;;;;;;;9.58;94.83;101720.50;20538173;28;19922;-59
2023/03/20 23:10:09;;;;;;;;;;;;;;;9.59;94.89;101722.22;20527592;28;19987;-58
2023/03/20 23:20:31;;;;;;;;;;;;;;;9.61;96.20;101715.31;20527738;28;19985;-59
2023/03/20 23:30:52;;;;;;;;;;;;;;;9.61;96.07;101712.72;20516349;28;20452;-58
2023/03/20 23:41:30;;;;;;;;;;;;;;;9.63;94.75;101709.22;20533079;28;19962;-57
2023/03/20 23:52:11;;;;;;;;;;;;;;;9.68;94.52;101704.03;20533020;28;19922;-58
